sensor_id;sensor_type;location;lat;lon;timestamp;P1;durP1;ratioP1;P2;durP2;ratioP2
57651;SDS011;43480;53.116;6.734;2023-12-29T00:00:32;12.20;;;2.75;;
57651;SDS011;43480;53.116;6.734;2023-12-29T00:02:58;13.68;;;3.75;;
57651;SDS011;43480;53.116;6.734;2023-12-29T00:05:24;10.80;;;3.13;;
57651;SDS011;43480;53.116;6.734;2023-12-29T00:07:50;11.00;;;2.88;;
57651;SDS011;43480;53.116;6.734;2023-12-29T00:10:15;11.13;;;2.83;;
57651;SDS011;43480;53.116;6.734;2023-12-29T00:12:41;12.50;;;3.38;;
57651;SDS011;43480;53.116;6.734;2023-12-29T00:15:07;11.52;;;3.00;;
57651;SDS011;43480;53.116;6.734;2023-12-29T00:17:33;14.68;;;2.85;;
57651;SDS011;43480;53.116;6.734;2023-12-29T00:20:03;11.32;;;2.67;;
57651;SDS011;43480;53.116;6.734;2023-12-29T00:22:29;10.32;;;2.72;;
57651;SDS011;43480;53.116;6.734;2023-12-29T00:24:55;12.52;;;3.45;;
57651;SDS011;43480;53.116;6.734;2023-12-29T00:27:20;8.85;;;3.13;;
57651;SDS011;43480;53.116;6.734;2023-12-29T00:29:46;16.80;;;4.60;;
57651;SDS011;43480;53.116;6.734;2023-12-29T00:32:12;11.30;;;2.90;;
57651;SDS011;43480;53.116;6.734;2023-12-29T00:34:37;12.00;;;2.83;;
57651;SDS011;43480;53.116;6.734;2023-12-29T00:37:03;13.68;;;4.45;;
57651;SDS011;43480;53.116;6.734;2023-12-29T00:39:31;15.10;;;3.25;;
57651;SDS011;43480;53.116;6.734;2023-12-29T00:42:03;11.90;;;3.00;;
57651;SDS011;43480;53.116;6.734;2023-12-29T00:44:29;15.52;;;3.92;;
57651;SDS011;43480;53.116;6.734;2023-12-29T00:46:55;12.43;;;2.65;;
57651;SDS011;43480;53.116;6.734;2023-12-29T00:49:21;12.80;;;2.88;;
57651;SDS011;43480;53.116;6.734;2023-12-29T00:51:47;8.90;;;2.55;;
57651;SDS011;43480;53.116;6.734;2023-12-29T00:54:13;8.85;;;3.13;;
57651;SDS011;43480;53.116;6.734;2023-12-29T00:56:38;11.35;;;2.67;;
57651;SDS011;43480;53.116;6.734;2023-12-29T00:59:04;14.07;;;3.15;;
57651;SDS011;43480;53.116;6.734;2023-12-29T01:01:33;13.77;;;2.95;;
57651;SDS011;43480;53.116;6.734;2023-12-29T01:04:00;8.45;;;2.97;;
57651;SDS011;43480;53.116;6.734;2023-12-29T01:06:26;13.00;;;3.45;;
57651;SDS011;43480;53.116;6.734;2023-12-29T01:08:51;12.40;;;4.05;;
57651;SDS011;43480;53.116;6.734;2023-12-29T01:11:17;12.43;;;3.70;;
57651;SDS011;43480;53.116;6.734;2023-12-29T01:13:42;9.20;;;2.78;;
57651;SDS011;43480;53.116;6.734;2023-12-29T01:16:08;11.95;;;3.03;;
57651;SDS011;43480;53.116;6.734;2023-12-29T01:18:34;12.75;;;3.50;;
57651;SDS011;43480;53.116;6.734;2023-12-29T01:20:59;15.80;;;3.67;;
57651;SDS011;43480;53.116;6.734;2023-12-29T01:23:25;11.02;;;3.97;;
57651;SDS011;43480;53.116;6.734;2023-12-29T01:25:51;18.67;;;4.15;;
57651;SDS011;43480;53.116;6.734;2023-12-29T01:28:16;16.38;;;4.45;;
57651;SDS011;43480;53.116;6.734;2023-12-29T01:30:42;14.05;;;3.80;;
57651;SDS011;43480;53.116;6.734;2023-12-29T01:33:08;14.77;;;3.78;;
57651;SDS011;43480;53.116;6.734;2023-12-29T01:35:34;17.80;;;4.30;;
57651;SDS011;43480;53.116;6.734;2023-12-29T01:37:59;16.75;;;4.85;;
57651;SDS011;43480;53.116;6.734;2023-12-29T01:40:26;15.55;;;4.75;;
57651;SDS011;43480;53.116;6.734;2023-12-29T01:42:51;15.13;;;4.05;;
57651;SDS011;43480;53.116;6.734;2023-12-29T01:45:23;21.05;;;3.63;;
57651;SDS011;43480;53.116;6.734;2023-12-29T01:47:51;18.42;;;4.95;;
57651;SDS011;43480;53.116;6.734;2023-12-29T01:50:20;18.05;;;4.47;;
57651;SDS011;43480;53.116;6.734;2023-12-29T01:52:48;8.63;;;2.40;;
57651;SDS011;43480;53.116;6.734;2023-12-29T01:55:17;5.93;;;1.48;;
57651;SDS011;43480;53.116;6.734;2023-12-29T01:57:45;6.35;;;1.52;;
57651;SDS011;43480;53.116;6.734;2023-12-29T02:00:12;7.43;;;1.30;;
57651;SDS011;43480;53.116;6.734;2023-12-29T02:02:38;42.15;;;4.70;;
57651;SDS011;43480;53.116;6.734;2023-12-29T02:05:04;6.13;;;1.85;;
57651;SDS011;43480;53.116;6.734;2023-12-29T02:07:31;11.52;;;2.13;;
57651;SDS011;43480;53.116;6.734;2023-12-29T02:09:57;19.55;;;3.00;;
57651;SDS011;43480;53.116;6.734;2023-12-29T02:12:24;19.02;;;2.38;;
57651;SDS011;43480;53.116;6.734;2023-12-29T02:14:50;14.75;;;2.75;;
57651;SDS011;43480;53.116;6.734;2023-12-29T02:17:26;0.10;;;0.10;;
57651;SDS011;43480;53.116;6.734;2023-12-29T02:19:54;0.10;;;0.10;;
57651;SDS011;43480;53.116;6.734;2023-12-29T02:22:20;0.10;;;0.10;;
57651;SDS011;43480;53.116;6.734;2023-12-29T02:24:46;0.10;;;0.10;;
57651;SDS011;43480;53.116;6.734;2023-12-29T02:32:30;0.10;;;0.10;;
57651;SDS011;43480;53.116;6.734;2023-12-29T02:34:59;0.10;;;0.10;;
57651;SDS011;43480;53.116;6.734;2023-12-29T02:37:26;0.10;;;0.10;;
57651;SDS011;43480;53.116;6.734;2023-12-29T02:39:54;0.10;;;0.10;;
57651;SDS011;43480;53.116;6.734;2023-12-29T02:42:21;0.10;;;0.10;;
57651;SDS011;43480;53.116;6.734;2023-12-29T02:44:47;0.03;;;0.03;;
57651;SDS011;43480;53.116;6.734;2023-12-29T02:47:12;0.10;;;0.10;;
57651;SDS011;43480;53.116;6.734;2023-12-29T02:49:38;0.10;;;0.10;;
57651;SDS011;43480;53.116;6.734;2023-12-29T02:52:04;0.10;;;0.10;;
57651;SDS011;43480;53.116;6.734;2023-12-29T02:54:30;0.52;;;0.52;;
57651;SDS011;43480;53.116;6.734;2023-12-29T02:56:55;0.03;;;0.03;;
57651;SDS011;43480;53.116;6.734;2023-12-29T02:59:21;0.25;;;0.25;;
57651;SDS011;43480;53.116;6.734;2023-12-29T03:01:47;0.10;;;0.10;;
57651;SDS011;43480;53.116;6.734;2023-12-29T03:04:12;0.10;;;0.10;;
57651;SDS011;43480;53.116;6.734;2023-12-29T03:06:38;0.10;;;0.10;;
57651;SDS011;43480;53.116;6.734;2023-12-29T03:09:06;1.10;;;1.10;;
57651;SDS011;43480;53.116;6.734;2023-12-29T03:11:31;0.10;;;0.10;;
57651;SDS011;43480;53.116;6.734;2023-12-29T03:13:57;0.20;;;0.20;;
57651;SDS011;43480;53.116;6.734;2023-12-29T03:16:23;0.10;;;0.10;;
57651;SDS011;43480;53.116;6.734;2023-12-29T03:18:48;0.10;;;0.10;;
57651;SDS011;43480;53.116;6.734;2023-12-29T03:21:14;0.00;;;0.00;;
57651;SDS011;43480;53.116;6.734;2023-12-29T03:23:39;0.10;;;0.10;;
57651;SDS011;43480;53.116;6.734;2023-12-29T03:26:05;0.10;;;0.10;;
57651;SDS011;43480;53.116;6.734;2023-12-29T03:28:31;0.00;;;0.00;;
57651;SDS011;43480;53.116;6.734;2023-12-29T03:30:56;0.00;;;0.00;;
57651;SDS011;43480;53.116;6.734;2023-12-29T03:33:22;0.00;;;0.00;;
57651;SDS011;43480;53.116;6.734;2023-12-29T03:35:48;0.00;;;0.00;;
57651;SDS011;43480;53.116;6.734;2023-12-29T03:38:13;0.20;;;0.20;;
57651;SDS011;43480;53.116;6.734;2023-12-29T03:40:39;0.20;;;0.20;;
57651;SDS011;43480;53.116;6.734;2023-12-29T03:43:05;0.15;;;0.15;;
57651;SDS011;43480;53.116;6.734;2023-12-29T03:45:31;0.40;;;0.40;;
57651;SDS011;43480;53.116;6.734;2023-12-29T03:47:56;0.10;;;0.10;;
57651;SDS011;43480;53.116;6.734;2023-12-29T03:50:22;0.10;;;0.10;;
57651;SDS011;43480;53.116;6.734;2023-12-29T03:52:48;0.10;;;0.10;;
57651;SDS011;43480;53.116;6.734;2023-12-29T03:55:13;0.80;;;0.32;;
57651;SDS011;43480;53.116;6.734;2023-12-29T03:57:42;0.10;;;0.10;;
57651;SDS011;43480;53.116;6.734;2023-12-29T04:00:10;1.05;;;0.95;;
57651;SDS011;43480;53.116;6.734;2023-12-29T04:02:37;0.00;;;0.00;;
57651;SDS011;43480;53.116;6.734;2023-12-29T04:05:03;0.00;;;0.00;;
57651;SDS011;43480;53.116;6.734;2023-12-29T04:07:30;0.10;;;0.10;;
57651;SDS011;43480;53.116;6.734;2023-12-29T04:09:56;0.03;;;0.03;;
57651;SDS011;43480;53.116;6.734;2023-12-29T04:12:21;0.00;;;0.00;;
57651;SDS011;43480;53.116;6.734;2023-12-29T04:14:47;0.40;;;0.40;;
57651;SDS011;43480;53.116;6.734;2023-12-29T04:17:13;0.05;;;0.05;;
57651;SDS011;43480;53.116;6.734;2023-12-29T04:19:39;0.10;;;0.10;;
57651;SDS011;43480;53.116;6.734;2023-12-29T04:22:06;1.38;;;1.30;;
57651;SDS011;43480;53.116;6.734;2023-12-29T04:24:32;0.43;;;0.43;;
57651;SDS011;43480;53.116;6.734;2023-12-29T04:26:58;0.15;;;0.15;;
57651;SDS011;43480;53.116;6.734;2023-12-29T04:29:24;1.20;;;1.20;;
57651;SDS011;43480;53.116;6.734;2023-12-29T04:31:50;0.20;;;0.20;;
57651;SDS011;43480;53.116;6.734;2023-12-29T04:34:16;0.00;;;0.00;;
57651;SDS011;43480;53.116;6.734;2023-12-29T04:36:41;0.25;;;0.25;;
57651;SDS011;43480;53.116;6.734;2023-12-29T04:39:07;0.20;;;0.20;;
57651;SDS011;43480;53.116;6.734;2023-12-29T04:41:35;0.10;;;0.10;;
57651;SDS011;43480;53.116;6.734;2023-12-29T04:44:01;3.38;;;3.15;;
57651;SDS011;43480;53.116;6.734;2023-12-29T04:46:26;0.00;;;0.00;;
57651;SDS011;43480;53.116;6.734;2023-12-29T04:48:52;0.65;;;0.65;;
57651;SDS011;43480;53.116;6.734;2023-12-29T04:51:18;0.13;;;0.13;;
57651;SDS011;43480;53.116;6.734;2023-12-29T04:53:44;0.10;;;0.10;;
57651;SDS011;43480;53.116;6.734;2023-12-29T04:56:10;3.33;;;1.80;;
57651;SDS011;43480;53.116;6.734;2023-12-29T04:58:36;0.00;;;0.00;;
57651;SDS011;43480;53.116;6.734;2023-12-29T05:01:02;0.00;;;0.00;;
57651;SDS011;43480;53.116;6.734;2023-12-29T05:03:28;0.10;;;0.10;;
57651;SDS011;43480;53.116;6.734;2023-12-29T05:05:54;0.30;;;0.30;;
57651;SDS011;43480;53.116;6.734;2023-12-29T05:08:19;0.10;;;0.10;;
57651;SDS011;43480;53.116;6.734;2023-12-29T05:10:45;0.32;;;0.32;;
57651;SDS011;43480;53.116;6.734;2023-12-29T05:13:11;0.00;;;0.00;;
57651;SDS011;43480;53.116;6.734;2023-12-29T05:15:36;0.10;;;0.10;;
57651;SDS011;43480;53.116;6.734;2023-12-29T05:18:02;0.10;;;0.10;;
57651;SDS011;43480;53.116;6.734;2023-12-29T05:20:27;0.00;;;0.00;;
57651;SDS011;43480;53.116;6.734;2023-12-29T05:22:53;0.10;;;0.10;;
57651;SDS011;43480;53.116;6.734;2023-12-29T05:25:19;12.15;;;1.45;;
57651;SDS011;43480;53.116;6.734;2023-12-29T05:27:47;0.40;;;0.40;;
57651;SDS011;43480;53.116;6.734;2023-12-29T05:30:13;0.32;;;0.32;;
57651;SDS011;43480;53.116;6.734;2023-12-29T05:32:39;0.15;;;0.15;;
57651;SDS011;43480;53.116;6.734;2023-12-29T05:35:04;0.40;;;0.40;;
57651;SDS011;43480;53.116;6.734;2023-12-29T05:37:30;0.10;;;0.10;;
57651;SDS011;43480;53.116;6.734;2023-12-29T05:39:56;0.03;;;0.03;;
57651;SDS011;43480;53.116;6.734;2023-12-29T05:42:22;0.25;;;0.25;;
57651;SDS011;43480;53.116;6.734;2023-12-29T05:44:47;0.65;;;0.65;;
57651;SDS011;43480;53.116;6.734;2023-12-29T05:47:13;0.80;;;0.80;;
57651;SDS011;43480;53.116;6.734;2023-12-29T05:49:39;0.10;;;0.10;;
57651;SDS011;43480;53.116;6.734;2023-12-29T05:52:05;0.20;;;0.10;;
57651;SDS011;43480;53.116;6.734;2023-12-29T05:54:31;0.65;;;0.60;;
57651;SDS011;43480;53.116;6.734;2023-12-29T05:56:58;0.00;;;0.00;;
57651;SDS011;43480;53.116;6.734;2023-12-29T05:59:23;0.20;;;0.20;;
57651;SDS011;43480;53.116;6.734;2023-12-29T06:01:49;0.10;;;0.10;;
57651;SDS011;43480;53.116;6.734;2023-12-29T06:04:15;0.15;;;0.15;;
57651;SDS011;43480;53.116;6.734;2023-12-29T06:06:41;0.47;;;0.47;;
57651;SDS011;43480;53.116;6.734;2023-12-29T06:09:08;40.10;;;2.38;;
57651;SDS011;43480;53.116;6.734;2023-12-29T06:11:35;0.00;;;0.00;;
57651;SDS011;43480;53.116;6.734;2023-12-29T06:14:01;3.92;;;3.72;;
57651;SDS011;43480;53.116;6.734;2023-12-29T06:16:27;5.35;;;2.65;;
57651;SDS011;43480;53.116;6.734;2023-12-29T06:18:54;0.10;;;0.10;;
57651;SDS011;43480;53.116;6.734;2023-12-29T06:21:20;0.68;;;0.52;;
57651;SDS011;43480;53.116;6.734;2023-12-29T06:23:46;0.00;;;0.00;;
57651;SDS011;43480;53.116;6.734;2023-12-29T06:26:16;25.60;;;4.70;;
57651;SDS011;43480;53.116;6.734;2023-12-29T06:28:43;26.80;;;3.75;;
57651;SDS011;43480;53.116;6.734;2023-12-29T06:31:12;14.73;;;3.47;;
57651;SDS011;43480;53.116;6.734;2023-12-29T06:33:41;21.67;;;4.07;;
57651;SDS011;43480;53.116;6.734;2023-12-29T06:36:08;20.48;;;4.90;;
57651;SDS011;43480;53.116;6.734;2023-12-29T06:38:34;22.33;;;3.70;;
57651;SDS011;43480;53.116;6.734;2023-12-29T06:41:03;20.75;;;6.32;;
57651;SDS011;43480;53.116;6.734;2023-12-29T06:43:29;20.35;;;4.43;;
57651;SDS011;43480;53.116;6.734;2023-12-29T06:45:55;22.77;;;4.78;;
57651;SDS011;43480;53.116;6.734;2023-12-29T06:48:21;27.00;;;4.63;;
57651;SDS011;43480;53.116;6.734;2023-12-29T06:50:47;22.42;;;4.50;;
57651;SDS011;43480;53.116;6.734;2023-12-29T06:53:13;29.42;;;5.75;;
57651;SDS011;43480;53.116;6.734;2023-12-29T06:55:39;28.33;;;4.55;;
57651;SDS011;43480;53.116;6.734;2023-12-29T06:58:05;26.55;;;4.47;;
57651;SDS011;43480;53.116;6.734;2023-12-29T07:00:31;29.23;;;4.38;;
57651;SDS011;43480;53.116;6.734;2023-12-29T07:02:56;25.83;;;4.97;;
57651;SDS011;43480;53.116;6.734;2023-12-29T07:05:22;19.75;;;4.75;;
57651;SDS011;43480;53.116;6.734;2023-12-29T07:07:48;22.60;;;4.82;;
57651;SDS011;43480;53.116;6.734;2023-12-29T07:10:13;26.23;;;6.03;;
57651;SDS011;43480;53.116;6.734;2023-12-29T07:12:42;18.60;;;4.40;;
57651;SDS011;43480;53.116;6.734;2023-12-29T07:15:08;25.60;;;5.72;;
57651;SDS011;43480;53.116;6.734;2023-12-29T07:17:34;23.52;;;4.35;;
57651;SDS011;43480;53.116;6.734;2023-12-29T07:20:00;22.60;;;5.43;;
57651;SDS011;43480;53.116;6.734;2023-12-29T07:22:26;29.20;;;5.47;;
57651;SDS011;43480;53.116;6.734;2023-12-29T07:24:51;23.75;;;4.88;;
57651;SDS011;43480;53.116;6.734;2023-12-29T07:27:18;26.60;;;5.18;;
57651;SDS011;43480;53.116;6.734;2023-12-29T07:29:43;29.45;;;5.10;;
57651;SDS011;43480;53.116;6.734;2023-12-29T07:32:09;26.75;;;5.90;;
57651;SDS011;43480;53.116;6.734;2023-12-29T07:34:35;26.98;;;5.60;;
57651;SDS011;43480;53.116;6.734;2023-12-29T07:37:00;26.40;;;4.53;;
57651;SDS011;43480;53.116;6.734;2023-12-29T07:39:26;27.70;;;5.38;;
57651;SDS011;43480;53.116;6.734;2023-12-29T07:41:52;33.40;;;5.93;;
57651;SDS011;43480;53.116;6.734;2023-12-29T07:44:18;29.05;;;6.40;;
57651;SDS011;43480;53.116;6.734;2023-12-29T07:46:44;25.75;;;5.18;;
57651;SDS011;43480;53.116;6.734;2023-12-29T07:49:10;29.83;;;5.40;;
57651;SDS011;43480;53.116;6.734;2023-12-29T07:51:42;27.00;;;5.00;;
57651;SDS011;43480;53.116;6.734;2023-12-29T07:54:10;23.92;;;4.18;;
57651;SDS011;43480;53.116;6.734;2023-12-29T07:56:36;23.77;;;5.18;;
57651;SDS011;43480;53.116;6.734;2023-12-29T07:59:03;24.48;;;5.10;;
57651;SDS011;43480;53.116;6.734;2023-12-29T08:01:29;27.55;;;6.32;;
57651;SDS011;43480;53.116;6.734;2023-12-29T08:03:54;31.35;;;5.40;;
57651;SDS011;43480;53.116;6.734;2023-12-29T08:06:20;21.55;;;4.53;;
57651;SDS011;43480;53.116;6.734;2023-12-29T08:08:46;28.98;;;4.82;;
57651;SDS011;43480;53.116;6.734;2023-12-29T08:11:15;26.90;;;5.03;;
57651;SDS011;43480;53.116;6.734;2023-12-29T08:13:42;30.88;;;5.53;;
57651;SDS011;43480;53.116;6.734;2023-12-29T08:16:10;36.13;;;6.60;;
57651;SDS011;43480;53.116;6.734;2023-12-29T08:18:36;28.60;;;7.05;;
57651;SDS011;43480;53.116;6.734;2023-12-29T08:21:02;23.90;;;5.32;;
57651;SDS011;43480;53.116;6.734;2023-12-29T08:23:27;22.00;;;4.15;;
57651;SDS011;43480;53.116;6.734;2023-12-29T08:25:53;26.17;;;4.40;;
57651;SDS011;43480;53.116;6.734;2023-12-29T08:28:21;25.80;;;4.90;;
57651;SDS011;43480;53.116;6.734;2023-12-29T08:30:46;26.40;;;4.50;;
57651;SDS011;43480;53.116;6.734;2023-12-29T08:33:12;27.70;;;5.93;;
57651;SDS011;43480;53.116;6.734;2023-12-29T08:35:41;28.30;;;5.57;;
57651;SDS011;43480;53.116;6.734;2023-12-29T08:38:07;19.55;;;4.28;;
57651;SDS011;43480;53.116;6.734;2023-12-29T08:40:33;20.33;;;4.10;;
57651;SDS011;43480;53.116;6.734;2023-12-29T08:42:58;29.77;;;5.50;;
57651;SDS011;43480;53.116;6.734;2023-12-29T08:45:26;25.33;;;4.85;;
57651;SDS011;43480;53.116;6.734;2023-12-29T08:47:52;23.40;;;3.90;;
57651;SDS011;43480;53.116;6.734;2023-12-29T08:50:17;26.88;;;5.03;;
57651;SDS011;43480;53.116;6.734;2023-12-29T08:52:43;27.17;;;5.80;;
57651;SDS011;43480;53.116;6.734;2023-12-29T08:55:09;23.88;;;5.00;;
57651;SDS011;43480;53.116;6.734;2023-12-29T08:57:35;28.83;;;5.82;;
57651;SDS011;43480;53.116;6.734;2023-12-29T09:00:00;25.73;;;5.60;;
57651;SDS011;43480;53.116;6.734;2023-12-29T09:02:26;30.58;;;7.53;;
57651;SDS011;43480;53.116;6.734;2023-12-29T09:04:52;21.58;;;4.82;;
57651;SDS011;43480;53.116;6.734;2023-12-29T09:07:17;24.85;;;5.40;;
57651;SDS011;43480;53.116;6.734;2023-12-29T09:09:43;26.25;;;5.85;;
57651;SDS011;43480;53.116;6.734;2023-12-29T09:12:09;23.77;;;4.45;;
57651;SDS011;43480;53.116;6.734;2023-12-29T09:14:35;26.30;;;6.00;;
57651;SDS011;43480;53.116;6.734;2023-12-29T09:17:00;38.38;;;6.55;;
57651;SDS011;43480;53.116;6.734;2023-12-29T09:19:26;33.22;;;5.53;;
57651;SDS011;43480;53.116;6.734;2023-12-29T09:21:52;27.27;;;5.07;;
57651;SDS011;43480;53.116;6.734;2023-12-29T09:24:18;25.67;;;4.47;;
57651;SDS011;43480;53.116;6.734;2023-12-29T09:26:44;33.40;;;6.07;;
57651;SDS011;43480;53.116;6.734;2023-12-29T09:29:09;31.70;;;4.60;;
57651;SDS011;43480;53.116;6.734;2023-12-29T09:31:35;20.55;;;4.82;;
57651;SDS011;43480;53.116;6.734;2023-12-29T09:34:01;26.17;;;4.95;;
57651;SDS011;43480;53.116;6.734;2023-12-29T09:36:27;20.55;;;5.00;;
57651;SDS011;43480;53.116;6.734;2023-12-29T09:38:53;26.60;;;4.90;;
57651;SDS011;43480;53.116;6.734;2023-12-29T09:41:20;30.80;;;5.93;;
57651;SDS011;43480;53.116;6.734;2023-12-29T09:43:48;27.45;;;5.00;;
57651;SDS011;43480;53.116;6.734;2023-12-29T09:46:18;22.48;;;4.03;;
57651;SDS011;43480;53.116;6.734;2023-12-29T09:48:46;21.40;;;4.63;;
57651;SDS011;43480;53.116;6.734;2023-12-29T09:51:14;24.42;;;5.32;;
57651;SDS011;43480;53.116;6.734;2023-12-29T09:53:41;23.85;;;4.38;;
57651;SDS011;43480;53.116;6.734;2023-12-29T09:56:07;24.50;;;5.30;;
57651;SDS011;43480;53.116;6.734;2023-12-29T09:58:34;22.42;;;4.13;;
57651;SDS011;43480;53.116;6.734;2023-12-29T10:01:04;25.70;;;4.20;;
57651;SDS011;43480;53.116;6.734;2023-12-29T10:03:30;24.42;;;5.55;;
57651;SDS011;43480;53.116;6.734;2023-12-29T10:05:56;19.13;;;4.65;;
57651;SDS011;43480;53.116;6.734;2023-12-29T10:08:26;25.00;;;5.10;;
57651;SDS011;43480;53.116;6.734;2023-12-29T10:10:54;19.60;;;4.75;;
57651;SDS011;43480;53.116;6.734;2023-12-29T10:13:23;23.52;;;4.40;;
57651;SDS011;43480;53.116;6.734;2023-12-29T10:15:50;22.60;;;3.88;;
57651;SDS011;43480;53.116;6.734;2023-12-29T10:18:37;20.45;;;3.65;;
57651;SDS011;43480;53.116;6.734;2023-12-29T10:21:20;20.38;;;4.25;;
57651;SDS011;43480;53.116;6.734;2023-12-29T10:24:23;21.88;;;3.83;;
57651;SDS011;43480;53.116;6.734;2023-12-29T10:26:48;19.50;;;3.95;;
57651;SDS011;43480;53.116;6.734;2023-12-29T10:29:15;28.45;;;5.00;;
57651;SDS011;43480;53.116;6.734;2023-12-29T10:31:41;22.88;;;4.88;;
57651;SDS011;43480;53.116;6.734;2023-12-29T10:34:19;25.27;;;4.68;;
57651;SDS011;43480;53.116;6.734;2023-12-29T10:36:56;18.65;;;3.67;;
57651;SDS011;43480;53.116;6.734;2023-12-29T10:39:28;20.42;;;3.35;;
57651;SDS011;43480;53.116;6.734;2023-12-29T10:42:04;20.00;;;4.03;;
57651;SDS011;43480;53.116;6.734;2023-12-29T10:44:32;17.92;;;3.63;;
57651;SDS011;43480;53.116;6.734;2023-12-29T10:46:58;16.90;;;4.57;;
57651;SDS011;43480;53.116;6.734;2023-12-29T10:49:32;22.55;;;5.72;;
57651;SDS011;43480;53.116;6.734;2023-12-29T10:51:57;20.75;;;3.78;;
57651;SDS011;43480;53.116;6.734;2023-12-29T10:54:23;18.58;;;3.22;;
57651;SDS011;43480;53.116;6.734;2023-12-29T10:57:01;19.17;;;3.70;;
57651;SDS011;43480;53.116;6.734;2023-12-29T10:59:27;11.43;;;2.75;;
57651;SDS011;43480;53.116;6.734;2023-12-29T11:01:53;18.17;;;3.83;;
57651;SDS011;43480;53.116;6.734;2023-12-29T11:04:23;17.00;;;3.38;;
57651;SDS011;43480;53.116;6.734;2023-12-29T11:06:49;14.32;;;3.50;;
57651;SDS011;43480;53.116;6.734;2023-12-29T11:11:59;12.10;;;2.20;;
57651;SDS011;43480;53.116;6.734;2023-12-29T11:14:26;17.20;;;2.80;;
57651;SDS011;43480;53.116;6.734;2023-12-29T11:16:54;16.13;;;2.88;;
57651;SDS011;43480;53.116;6.734;2023-12-29T11:19:20;16.08;;;3.42;;
57651;SDS011;43480;53.116;6.734;2023-12-29T11:21:46;18.23;;;2.95;;
57651;SDS011;43480;53.116;6.734;2023-12-29T11:24:16;13.85;;;3.17;;
57651;SDS011;43480;53.116;6.734;2023-12-29T11:26:42;9.98;;;2.30;;
57651;SDS011;43480;53.116;6.734;2023-12-29T11:29:09;18.83;;;2.92;;
57651;SDS011;43480;53.116;6.734;2023-12-29T11:31:36;16.67;;;2.72;;
57651;SDS011;43480;53.116;6.734;2023-12-29T11:34:08;18.00;;;3.35;;
57651;SDS011;43480;53.116;6.734;2023-12-29T11:36:38;14.07;;;3.00;;
57651;SDS011;43480;53.116;6.734;2023-12-29T11:41:56;14.70;;;2.63;;
57651;SDS011;43480;53.116;6.734;2023-12-29T11:44:30;10.77;;;2.63;;
57651;SDS011;43480;53.116;6.734;2023-12-29T11:46:58;11.45;;;2.80;;
57651;SDS011;43480;53.116;6.734;2023-12-29T11:49:25;11.38;;;1.58;;
57651;SDS011;43480;53.116;6.734;2023-12-29T11:51:51;16.70;;;2.65;;
57651;SDS011;43480;53.116;6.734;2023-12-29T11:54:24;13.35;;;2.10;;
57651;SDS011;43480;53.116;6.734;2023-12-29T11:56:52;12.60;;;3.10;;
57651;SDS011;43480;53.116;6.734;2023-12-29T11:59:19;18.63;;;4.20;;
57651;SDS011;43480;53.116;6.734;2023-12-29T12:01:55;10.60;;;2.30;;
57651;SDS011;43480;53.116;6.734;2023-12-29T12:04:38;9.63;;;2.47;;
57651;SDS011;43480;53.116;6.734;2023-12-29T12:09:49;7.03;;;1.30;;
57651;SDS011;43480;53.116;6.734;2023-12-29T12:15:30;16.73;;;2.45;;
57651;SDS011;43480;53.116;6.734;2023-12-29T12:20:29;12.35;;;1.65;;
57651;SDS011;43480;53.116;6.734;2023-12-29T12:22:59;16.00;;;2.35;;
57651;SDS011;43480;53.116;6.734;2023-12-29T12:25:33;12.00;;;3.38;;
57651;SDS011;43480;53.116;6.734;2023-12-29T12:28:01;10.60;;;1.90;;
57651;SDS011;43480;53.116;6.734;2023-12-29T12:30:30;15.93;;;3.17;;
57651;SDS011;43480;53.116;6.734;2023-12-29T12:32:59;13.63;;;3.08;;
57651;SDS011;43480;53.116;6.734;2023-12-29T12:35:26;11.65;;;2.30;;
57651;SDS011;43480;53.116;6.734;2023-12-29T12:38:08;12.00;;;2.75;;
57651;SDS011;43480;53.116;6.734;2023-12-29T12:40:47;11.63;;;2.28;;
57651;SDS011;43480;53.116;6.734;2023-12-29T12:43:13;17.67;;;3.92;;
57651;SDS011;43480;53.116;6.734;2023-12-29T12:45:41;13.77;;;3.50;;
57651;SDS011;43480;53.116;6.734;2023-12-29T12:48:19;13.32;;;1.80;;
57651;SDS011;43480;53.116;6.734;2023-12-29T12:50:46;16.65;;;3.35;;
57651;SDS011;43480;53.116;6.734;2023-12-29T12:53:13;14.07;;;2.78;;
57651;SDS011;43480;53.116;6.734;2023-12-29T12:55:45;10.07;;;2.35;;
57651;SDS011;43480;53.116;6.734;2023-12-29T12:58:14;12.50;;;3.17;;
57651;SDS011;43480;53.116;6.734;2023-12-29T13:00:41;14.63;;;2.65;;
57651;SDS011;43480;53.116;6.734;2023-12-29T13:03:07;16.05;;;3.38;;
57651;SDS011;43480;53.116;6.734;2023-12-29T13:05:34;14.65;;;2.30;;
57651;SDS011;43480;53.116;6.734;2023-12-29T13:08:01;16.83;;;2.63;;
57651;SDS011;43480;53.116;6.734;2023-12-29T13:10:28;13.20;;;2.78;;
57651;SDS011;43480;53.116;6.734;2023-12-29T13:12:55;24.38;;;3.10;;
57651;SDS011;43480;53.116;6.734;2023-12-29T13:15:21;12.10;;;3.25;;
57651;SDS011;43480;53.116;6.734;2023-12-29T13:17:53;14.52;;;3.45;;
57651;SDS011;43480;53.116;6.734;2023-12-29T13:20:19;16.20;;;3.43;;
57651;SDS011;43480;53.116;6.734;2023-12-29T13:22:49;17.75;;;3.38;;
57651;SDS011;43480;53.116;6.734;2023-12-29T13:25:18;16.20;;;2.72;;
57651;SDS011;43480;53.116;6.734;2023-12-29T13:27:45;20.42;;;3.97;;
57651;SDS011;43480;53.116;6.734;2023-12-29T13:30:12;20.10;;;4.40;;
57651;SDS011;43480;53.116;6.734;2023-12-29T13:32:39;14.93;;;3.00;;
57651;SDS011;43480;53.116;6.734;2023-12-29T13:35:24;17.95;;;3.83;;
57651;SDS011;43480;53.116;6.734;2023-12-29T13:43:24;12.70;;;3.45;;
57651;SDS011;43480;53.116;6.734;2023-12-29T13:45:51;12.10;;;2.17;;
57651;SDS011;43480;53.116;6.734;2023-12-29T13:48:17;16.42;;;2.72;;
57651;SDS011;43480;53.116;6.734;2023-12-29T13:50:47;14.50;;;2.65;;
57651;SDS011;43480;53.116;6.734;2023-12-29T13:53:20;12.90;;;2.10;;
57651;SDS011;43480;53.116;6.734;2023-12-29T13:55:47;9.82;;;2.00;;
57651;SDS011;43480;53.116;6.734;2023-12-29T13:58:13;11.00;;;1.98;;
57651;SDS011;43480;53.116;6.734;2023-12-29T14:00:40;15.98;;;2.50;;
57651;SDS011;43480;53.116;6.734;2023-12-29T14:03:06;12.73;;;3.00;;
57651;SDS011;43480;53.116;6.734;2023-12-29T14:08:22;14.18;;;2.70;;
57651;SDS011;43480;53.116;6.734;2023-12-29T14:10:51;15.52;;;2.50;;
57651;SDS011;43480;53.116;6.734;2023-12-29T14:13:18;12.07;;;2.83;;
57651;SDS011;43480;53.116;6.734;2023-12-29T14:15:45;11.70;;;2.55;;
57651;SDS011;43480;53.116;6.734;2023-12-29T14:21:23;14.68;;;2.83;;
57651;SDS011;43480;53.116;6.734;2023-12-29T14:26:33;14.02;;;2.42;;
57651;SDS011;43480;53.116;6.734;2023-12-29T14:28:59;9.68;;;2.15;;
57651;SDS011;43480;53.116;6.734;2023-12-29T14:31:39;12.80;;;2.95;;
57651;SDS011;43480;53.116;6.734;2023-12-29T14:34:06;17.42;;;2.97;;
57651;SDS011;43480;53.116;6.734;2023-12-29T14:36:32;10.80;;;2.72;;
57651;SDS011;43480;53.116;6.734;2023-12-29T14:38:59;13.77;;;2.40;;
57651;SDS011;43480;53.116;6.734;2023-12-29T14:41:25;15.23;;;3.15;;
57651;SDS011;43480;53.116;6.734;2023-12-29T14:43:51;12.85;;;2.90;;
57651;SDS011;43480;53.116;6.734;2023-12-29T14:46:18;15.80;;;3.00;;
57651;SDS011;43480;53.116;6.734;2023-12-29T14:48:44;14.73;;;3.15;;
57651;SDS011;43480;53.116;6.734;2023-12-29T14:51:10;14.82;;;3.38;;
57651;SDS011;43480;53.116;6.734;2023-12-29T14:53:36;12.95;;;2.42;;
57651;SDS011;43480;53.116;6.734;2023-12-29T14:56:02;14.25;;;4.45;;
57651;SDS011;43480;53.116;6.734;2023-12-29T14:58:28;13.05;;;2.33;;
57651;SDS011;43480;53.116;6.734;2023-12-29T15:00:56;11.85;;;2.42;;
57651;SDS011;43480;53.116;6.734;2023-12-29T15:03:22;16.15;;;3.45;;
57651;SDS011;43480;53.116;6.734;2023-12-29T15:05:48;21.35;;;3.65;;
57651;SDS011;43480;53.116;6.734;2023-12-29T15:08:15;16.65;;;3.50;;
57651;SDS011;43480;53.116;6.734;2023-12-29T15:10:46;16.70;;;2.92;;